sensor_id;sensor_type;location;lat;lon;timestamp;pressure;altitude;pressure_sealevel;temperature;humidity
71057;BME280;58380;48.312;9.246;2022-12-18T07:31:42;94546.09;;;-8.08;100.00
71057;BME280;58380;48.312;9.246;2022-12-18T07:34:11;94522.50;;;-8.23;100.00
71057;BME280;58380;48.312;9.246;2022-12-18T07:36:38;94533.44;;;-8.21;100.00
71057;BME280;58380;48.312;9.246;2022-12-18T07:39:03;94439.16;;;-8.80;100.00
71057;BME280;58380;48.312;9.246;2022-12-18T07:41:29;94518.19;;;-8.34;100.00
71057;BME280;58380;48.312;9.246;2022-12-18T07:46:22;94355.66;;;-9.25;100.00
71057;BME280;58380;48.312;9.246;2022-12-18T07:48:48;94413.03;;;-8.95;100.00
71057;BME280;58380;48.312;9.246;2022-12-18T07:51:13;94527.47;;;-8.21;100.00
71057;BME280;58380;48.312;9.246;2022-12-18T07:53:40;94541.06;;;-8.10;100.00
71057;BME280;58380;48.312;9.246;2022-12-18T07:56:08;94537.34;;;-8.06;100.00
71057;BME280;58380;48.312;9.246;2022-12-18T07:58:36;94532.22;;;-8.06;100.00
71057;BME280;58380;48.312;9.246;2022-12-18T08:01:08;94497.13;;;-8.26;100.00
71057;BME280;58380;48.312;9.246;2022-12-18T08:03:36;94549.78;;;-8.01;100.00
71057;BME280;58380;48.312;9.246;2022-12-18T08:06:06;94505.13;;;-8.19;100.00
71057;BME280;58380;48.312;9.246;2022-12-18T08:08:35;94575.25;;;-7.88;100.00
71057;BME280;58380;48.312;9.246;2022-12-18T08:11:01;94562.91;;;-7.94;100.00
71057;BME280;58380;48.312;9.246;2022-12-18T08:13:27;94545.72;;;-8.04;100.00
71057;BME280;58380;48.312;9.246;2022-12-18T08:16:02;94553.59;;;-7.95;100.00
71057;BME280;58380;48.312;9.246;2022-12-18T08:18:34;94566.59;;;-7.87;100.00
71057;BME280;58380;48.312;9.246;2022-12-18T08:21:28;94568.44;;;-7.78;100.00
71057;BME280;58380;48.312;9.246;2022-12-18T08:23:57;94563.59;;;-7.92;100.00
71057;BME280;58380;48.312;9.246;2022-12-18T08:26:26;94559.66;;;-7.96;100.00
71057;BME280;58380;48.312;9.246;2022-12-18T08:28:55;94513.16;;;-8.24;100.00
71057;BME280;58380;48.312;9.246;2022-12-18T08:31:21;94535.50;;;-8.15;100.00
71057;BME280;58380;48.312;9.246;2022-12-18T08:33:52;94579.06;;;-7.83;100.00
71057;BME280;58380;48.312;9.246;2022-12-18T08:36:19;94581.72;;;-7.84;100.00
71057;BME280;58380;48.312;9.246;2022-12-18T08:38:45;94553.34;;;-7.92;100.00
71057;BME280;58380;48.312;9.246;2022-12-18T08:41:13;94577.50;;;-7.74;100.00
71057;BME280;58380;48.312;9.246;2022-12-18T08:43:40;94582.34;;;-7.60;100.00
71057;BME280;58380;48.312;9.246;2022-12-18T08:46:25;94548.22;;;-7.71;100.00
71057;BME280;58380;48.312;9.246;2022-12-18T08:48:53;94577.59;;;-7.43;100.00
71057;BME280;58380;48.312;9.246;2022-12-18T08:51:20;94574.69;;;-7.29;100.00
71057;BME280;58380;48.312;9.246;2022-12-18T08:53:46;94507.63;;;-7.76;100.00
71057;BME280;58380;48.312;9.246;2022-12-18T08:56:13;94591.28;;;-7.33;100.00
71057;BME280;58380;48.312;9.246;2022-12-18T08:58:39;94595.09;;;-7.27;100.00
71057;BME280;58380;48.312;9.246;2022-12-18T09:01:07;94563.03;;;-7.64;100.00
71057;BME280;58380;48.312;9.246;2022-12-18T09:03:35;94513.59;;;-7.87;100.00
71057;BME280;58380;48.312;9.246;2022-12-18T09:06:03;94559.00;;;-7.56;100.00
71057;BME280;58380;48.312;9.246;2022-12-18T09:08:29;94579.91;;;-7.40;100.00
71057;BME280;58380;48.312;9.246;2022-12-18T09:10:54;94547.66;;;-7.64;100.00
71057;BME280;58380;48.312;9.246;2022-12-18T09:13:22;94540.81;;;-7.53;100.00
71057;BME280;58380;48.312;9.246;2022-12-18T09:15:50;94454.78;;;-8.09;100.00
71057;BME280;58380;48.312;9.246;2022-12-18T09:18:19;94566.34;;;-7.31;100.00
71057;BME280;58380;48.312;9.246;2022-12-18T09:20:46;94538.50;;;-7.56;100.00
71057;BME280;58380;48.312;9.246;2022-12-18T09:23:12;94571.28;;;-7.60;100.00
71057;BME280;58380;48.312;9.246;2022-12-18T09:25:38;94545.44;;;-7.68;100.00
71057;BME280;58380;48.312;9.246;2022-12-18T09:28:11;94570.75;;;-7.54;100.00
71057;BME280;58380;48.312;9.246;2022-12-18T09:30:39;94516.06;;;-7.85;100.00
71057;BME280;58380;48.312;9.246;2022-12-18T09:33:06;94547.81;;;-7.55;100.00
71057;BME280;58380;48.312;9.246;2022-12-18T09:35:32;94573.19;;;-7.31;100.00
71057;BME280;58380;48.312;9.246;2022-12-18T09:37:58;94572.97;;;-7.28;100.00
71057;BME280;58380;48.312;9.246;2022-12-18T09:40:34;94567.69;;;-7.27;100.00
71057;BME280;58380;48.312;9.246;2022-12-18T09:43:06;94567.63;;;-7.16;100.00
71057;BME280;58380;48.312;9.246;2022-12-18T09:45:41;94546.53;;;-7.19;100.00
71057;BME280;58380;48.312;9.246;2022-12-18T09:48:23;94538.03;;;-7.20;100.00
71057;BME280;58380;48.312;9.246;2022-12-18T09:50:58;94507.56;;;-7.44;100.00
71057;BME280;58380;48.312;9.246;2022-12-18T09:53:33;94572.31;;;-7.00;100.00
71057;BME280;58380;48.312;9.246;2022-12-18T09:56:04;94567.69;;;-7.06;100.00
71057;BME280;58380;48.312;9.246;2022-12-18T09:58:31;94562.84;;;-6.99;100.00
71057;BME280;58380;48.312;9.246;2022-12-18T10:01:17;94429.88;;;-7.86;99.85
71057;BME280;58380;48.312;9.246;2022-12-18T10:03:46;94566.66;;;-6.93;100.00
71057;BME280;58380;48.312;9.246;2022-12-18T10:06:16;94561.53;;;-6.93;99.57
71057;BME280;58380;48.312;9.246;2022-12-18T10:09:11;94576.09;;;-6.94;99.83
71057;BME280;58380;48.312;9.246;2022-12-18T10:15:24;94575.03;;;-6.91;100.00
71057;BME280;58380;48.312;9.246;2022-12-18T10:18:06;94578.06;;;-7.07;100.00
71057;BME280;58380;48.312;9.246;2022-12-18T10:20:46;94547.88;;;-7.25;100.00
71057;BME280;58380;48.312;9.246;2022-12-18T10:26:09;94575.00;;;-7.01;100.00
71057;BME280;58380;48.312;9.246;2022-12-18T10:28:38;94581.22;;;-7.04;100.00
71057;BME280;58380;48.312;9.246;2022-12-18T10:31:07;94521.47;;;-7.37;100.00
71057;BME280;58380;48.312;9.246;2022-12-18T10:33:41;94536.41;;;-6.90;100.00
71057;BME280;58380;48.312;9.246;2022-12-18T10:36:07;94538.78;;;-6.67;100.00
71057;BME280;58380;48.312;9.246;2022-12-18T10:38:33;94547.06;;;-6.54;99.91
71057;BME280;58380;48.312;9.246;2022-12-18T10:44:20;94556.44;;;-6.43;98.63
71057;BME280;58380;48.312;9.246;2022-12-18T10:46:50;94539.50;;;-6.56;98.49
71057;BME280;58380;48.312;9.246;2022-12-18T10:49:29;94550.31;;;-6.52;98.32
71057;BME280;58380;48.312;9.246;2022-12-18T10:52:05;94557.94;;;-6.41;98.58
71057;BME280;58380;48.312;9.246;2022-12-18T10:54:31;94430.91;;;-7.37;98.45
71057;BME280;58380;48.312;9.246;2022-12-18T10:57:38;94526.53;;;-6.64;98.77
71057;BME280;58380;48.312;9.246;2022-12-18T11:02:51;94574.91;;;-6.19;98.08
71057;BME280;58380;48.312;9.246;2022-12-18T11:05:37;94567.03;;;-6.17;97.13
71057;BME280;58380;48.312;9.246;2022-12-18T11:08:02;94558.38;;;-6.26;97.11
71057;BME280;58380;48.312;9.246;2022-12-18T11:10:38;94492.88;;;-6.61;96.51
71057;BME280;58380;48.312;9.246;2022-12-18T11:13:26;94565.09;;;-6.35;97.60
71057;BME280;58380;48.312;9.246;2022-12-18T11:15:54;94527.13;;;-6.41;97.35
71057;BME280;58380;48.312;9.246;2022-12-18T11:18:29;94546.06;;;-6.22;97.15
71057;BME280;58380;48.312;9.246;2022-12-18T11:21:10;94560.22;;;-6.47;97.31
71057;BME280;58380;48.312;9.246;2022-12-18T11:23:46;94516.75;;;-6.70;97.67
71057;BME280;58380;48.312;9.246;2022-12-18T11:26:14;94555.09;;;-6.38;97.96
71057;BME280;58380;48.312;9.246;2022-12-18T11:28:43;94541.59;;;-6.30;97.13
71057;BME280;58380;48.312;9.246;2022-12-18T11:31:24;94531.03;;;-6.27;97.41
71057;BME280;58380;48.312;9.246;2022-12-18T11:36:52;94546.22;;;-6.04;96.32
71057;BME280;58380;48.312;9.246;2022-12-18T11:42:24;94544.69;;;-6.26;96.61
71057;BME280;58380;48.312;9.246;2022-12-18T11:47:57;94538.22;;;-6.31;97.14
71057;BME280;58380;48.312;9.246;2022-12-18T11:50:39;94539.84;;;-6.20;96.89
71057;BME280;58380;48.312;9.246;2022-12-18T11:53:13;94524.03;;;-6.05;96.55
71057;BME280;58380;48.312;9.246;2022-12-18T11:55:47;94451.78;;;-6.61;96.04
71057;BME280;58380;48.312;9.246;2022-12-18T12:04:30;94515.59;;;-6.37;96.52
71057;BME280;58380;48.312;9.246;2022-12-18T12:07:23;94526.31;;;-6.12;96.52
71057;BME280;58380;48.312;9.246;2022-12-18T12:13:11;94524.97;;;-5.97;95.14
71057;BME280;58380;48.312;9.246;2022-12-18T12:16:18;94465.47;;;-6.21;95.19
71057;BME280;58380;48.312;9.246;2022-12-18T12:21:44;94509.72;;;-5.98;95.42
71057;BME280;58380;48.312;9.246;2022-12-18T12:24:57;94500.50;;;-6.01;95.26
71057;BME280;58380;48.312;9.246;2022-12-18T12:30:59;94485.31;;;-5.85;94.78
71057;BME280;58380;48.312;9.246;2022-12-18T12:39:18;94484.91;;;-5.80;93.38
71057;BME280;58380;48.312;9.246;2022-12-18T12:41:58;94458.69;;;-6.32;94.71
71057;BME280;58380;48.312;9.246;2022-12-18T12:44:47;94459.50;;;-6.61;95.89
71057;BME280;58380;48.312;9.246;2022-12-18T12:47:25;94497.91;;;-6.40;96.45
71057;BME280;58380;48.312;9.246;2022-12-18T12:49:54;94430.66;;;-6.74;95.92
71057;BME280;58380;48.312;9.246;2022-12-18T12:52:31;94467.75;;;-6.38;95.96
71057;BME280;58380;48.312;9.246;2022-12-18T12:55:05;94464.34;;;-6.58;96.02
71057;BME280;58380;48.312;9.246;2022-12-18T12:57:42;94493.06;;;-6.33;96.48
71057;BME280;58380;48.312;9.246;2022-12-18T13:00:18;94485.22;;;-6.41;96.39
71057;BME280;58380;48.312;9.246;2022-12-18T13:03:08;94496.13;;;-6.39;96.36
71057;BME280;58380;48.312;9.246;2022-12-18T13:05:46;94492.38;;;-6.35;96.64
71057;BME280;58380;48.312;9.246;2022-12-18T13:08:26;94488.19;;;-6.17;96.79
71057;BME280;58380;48.312;9.246;2022-12-18T13:10:54;94463.16;;;-6.24;96.15
71057;BME280;58380;48.312;9.246;2022-12-18T13:13:53;94494.97;;;-5.96;95.59
71057;BME280;58380;48.312;9.246;2022-12-18T13:16:22;94460.75;;;-6.16;95.49
71057;BME280;58380;48.312;9.246;2022-12-18T13:18:51;94471.16;;;-6.27;95.62
71057;BME280;58380;48.312;9.246;2022-12-18T13:21:37;94473.03;;;-6.30;96.16
71057;BME280;58380;48.312;9.246;2022-12-18T13:24:32;94488.59;;;-6.31;96.38
71057;BME280;58380;48.312;9.246;2022-12-18T13:26:57;94492.25;;;-6.34;96.61
71057;BME280;58380;48.312;9.246;2022-12-18T13:29:45;94502.09;;;-6.19;96.85
71057;BME280;58380;48.312;9.246;2022-12-18T13:32:31;94499.28;;;-6.26;96.93
71057;BME280;58380;48.312;9.246;2022-12-18T13:37:54;94490.22;;;-6.30;97.12
71057;BME280;58380;48.312;9.246;2022-12-18T13:45:58;94493.72;;;-6.41;97.42
71057;BME280;58380;48.312;9.246;2022-12-18T13:48:27;94478.28;;;-6.51;97.97
71057;BME280;58380;48.312;9.246;2022-12-18T13:51:06;94470.44;;;-6.59;98.35
71057;BME280;58380;48.312;9.246;2022-12-18T13:56:49;94467.22;;;-6.41;97.64
71057;BME280;58380;48.312;9.246;2022-12-18T13:59:18;94469.66;;;-6.40;97.52
71057;BME280;58380;48.312;9.246;2022-12-18T14:01:57;94489.69;;;-6.34;97.70
71057;BME280;58380;48.312;9.246;2022-12-18T14:04:35;94480.06;;;-6.32;97.71
71057;BME280;58380;48.312;9.246;2022-12-18T14:07:07;94479.41;;;-6.34;97.52
71057;BME280;58380;48.312;9.246;2022-12-18T14:09:43;94450.97;;;-6.52;97.78
71057;BME280;58380;48.312;9.246;2022-12-18T14:12:25;94485.44;;;-6.44;97.47
71057;BME280;58380;48.312;9.246;2022-12-18T14:15:25;94488.28;;;-6.47;98.10
71057;BME280;58380;48.312;9.246;2022-12-18T14:18:24;94494.78;;;-6.43;98.17
71057;BME280;58380;48.312;9.246;2022-12-18T14:20:57;94486.28;;;-6.54;97.74
71057;BME280;58380;48.312;9.246;2022-12-18T14:23:38;94467.88;;;-6.59;98.06
71057;BME280;58380;48.312;9.246;2022-12-18T14:26:24;94492.34;;;-6.45;97.79
71057;BME280;58380;48.312;9.246;2022-12-18T14:28:56;94494.78;;;-6.43;97.91
71057;BME280;58380;48.312;9.246;2022-12-18T14:31:25;94491.66;;;-6.47;98.01
71057;BME280;58380;48.312;9.246;2022-12-18T14:33:53;94502.09;;;-6.48;97.95
71057;BME280;58380;48.312;9.246;2022-12-18T14:36:26;94492.47;;;-6.46;98.43
71057;BME280;58380;48.312;9.246;2022-12-18T14:38:55;94492.59;;;-6.58;98.87
71057;BME280;58380;48.312;9.246;2022-12-18T14:41:23;94511.94;;;-6.54;98.99
71057;BME280;58380;48.312;9.246;2022-12-18T14:43:51;94509.66;;;-6.47;99.01
71057;BME280;58380;48.312;9.246;2022-12-18T14:46:40;94526.00;;;-6.48;98.46
71057;BME280;58380;48.312;9.246;2022-12-18T14:52:01;94498.69;;;-6.59;98.57
71057;BME280;58380;48.312;9.246;2022-12-18T14:54:31;94500.00;;;-6.64;98.55
71057;BME280;58380;48.312;9.246;2022-12-18T14:57:06;94511.38;;;-6.57;98.99
71057;BME280;58380;48.312;9.246;2022-12-18T14:59:40;94505.84;;;-6.62;99.26
71057;BME280;58380;48.312;9.246;2022-12-18T15:02:26;94511.53;;;-6.59;98.83
71057;BME280;58380;48.312;9.246;2022-12-18T15:05:02;94510.28;;;-6.64;98.80
71057;BME280;58380;48.312;9.246;2022-12-18T15:07:45;94529.94;;;-6.54;98.69
71057;BME280;58380;48.312;9.246;2022-12-18T15:10:20;94460.88;;;-6.97;98.62
71057;BME280;58380;48.312;9.246;2022-12-18T15:20:53;94526.88;;;-6.78;99.86
71057;BME280;58380;48.312;9.246;2022-12-18T15:26:13;94501.94;;;-6.97;99.71
71057;BME280;58380;48.312;9.246;2022-12-18T15:28:51;94534.66;;;-6.89;100.00
71057;BME280;58380;48.312;9.246;2022-12-18T15:31:30;94528.06;;;-6.82;100.00
71057;BME280;58380;48.312;9.246;2022-12-18T15:34:40;94529.13;;;-6.85;100.00
71057;BME280;58380;48.312;9.246;2022-12-18T15:36:47;94476.38;;;-7.08;99.94
71057;BME280;58380;48.312;9.246;2022-12-18T15:39:13;94484.50;;;-7.03;99.90
71057;BME280;58380;48.312;9.246;2022-12-18T15:41:38;94505.06;;;-6.93;99.98
71057;BME280;58380;48.312;9.246;2022-12-18T15:44:23;94519.94;;;-6.87;99.89
71057;BME280;58380;48.312;9.246;2022-12-18T15:46:50;94503.41;;;-7.04;100.00
71057;BME280;58380;48.312;9.246;2022-12-18T15:49:15;94504.25;;;-6.94;99.96
71057;BME280;58380;48.312;9.246;2022-12-18T15:51:41;94479.19;;;-7.11;99.95
71057;BME280;58380;48.312;9.246;2022-12-18T15:54:11;94517.06;;;-6.94;100.00
71057;BME280;58380;48.312;9.246;2022-12-18T15:56:39;94523.84;;;-6.93;100.00
71057;BME280;58380;48.312;9.246;2022-12-18T15:59:23;94504.09;;;-7.02;100.00
71057;BME280;58380;48.312;9.246;2022-12-18T16:01:51;94507.84;;;-7.06;100.00
71057;BME280;58380;48.312;9.246;2022-12-18T16:04:20;94521.53;;;-6.96;100.00
71057;BME280;58380;48.312;9.246;2022-12-18T16:06:47;94515.06;;;-6.90;100.00
71057;BME280;58380;48.312;9.246;2022-12-18T16:09:14;94484.72;;;-7.16;100.00
71057;BME280;58380;48.312;9.246;2022-12-18T16:11:41;94530.75;;;-6.93;100.00
71057;BME280;58380;48.312;9.246;2022-12-18T16:14:21;94527.75;;;-6.89;100.00
71057;BME280;58380;48.312;9.246;2022-12-18T16:16:51;94477.81;;;-7.25;100.00
71057;BME280;58380;48.312;9.246;2022-12-18T16:19:18;94539.75;;;-6.99;100.00
71057;BME280;58380;48.312;9.246;2022-12-18T16:21:45;94527.44;;;-7.05;100.00
71057;BME280;58380;48.312;9.246;2022-12-18T16:24:16;94516.59;;;-7.19;100.00
71057;BME280;58380;48.312;9.246;2022-12-18T16:26:44;94528.78;;;-7.11;100.00
71057;BME280;58380;48.312;9.246;2022-12-18T16:29:10;94510.75;;;-7.21;100.00
71057;BME280;58380;48.312;9.246;2022-12-18T16:31:36;94522.53;;;-7.18;100.00
71057;BME280;58380;48.312;9.246;2022-12-18T16:34:28;94534.56;;;-7.09;100.00
71057;BME280;58380;48.312;9.246;2022-12-18T16:39:23;94517.97;;;-7.05;100.00
71057;BME280;58380;48.312;9.246;2022-12-18T16:41:49;94501.94;;;-7.28;100.00
71057;BME280;58380;48.312;9.246;2022-12-18T16:44:15;94532.75;;;-6.97;100.00
71057;BME280;58380;48.312;9.246;2022-12-18T16:46:40;94510.16;;;-7.03;100.00
71057;BME280;58380;48.312;9.246;2022-12-18T16:49:11;94521.78;;;-6.99;100.00
71057;BME280;58380;48.312;9.246;2022-12-18T16:51:38;94491.22;;;-7.12;100.00
71057;BME280;58380;48.312;9.246;2022-12-18T16:54:04;94512.22;;;-6.97;100.00
71057;BME280;58380;48.312;9.246;2022-12-18T16:56:30;94473.22;;;-7.22;100.00
71057;BME280;58380;48.312;9.246;2022-12-18T16:58:57;94493.00;;;-7.03;100.00
71057;BME280;58380;48.312;9.246;2022-12-18T17:01:26;94498.03;;;-7.01;100.00
71057;BME280;58380;48.312;9.246;2022-12-18T17:04:04;94504.66;;;-6.99;100.00
71057;BME280;58380;48.312;9.246;2022-12-18T17:06:31;94517.25;;;-6.86;100.00
71057;BME280;58380;48.312;9.246;2022-12-18T17:09:01;94421.97;;;-7.43;100.00
71057;BME280;58380;48.312;9.246;2022-12-18T17:11:31;94523.88;;;-6.83;100.00
71057;BME280;58380;48.312;9.246;2022-12-18T17:13:58;94490.19;;;-7.00;100.00
71057;BME280;58380;48.312;9.246;2022-12-18T17:16:24;94518.09;;;-6.76;100.00
71057;BME280;58380;48.312;9.246;2022-12-18T17:18:54;94492.66;;;-6.88;100.00
71057;BME280;58380;48.312;9.246;2022-12-18T17:21:19;94486.84;;;-6.90;100.00
71057;BME280;58380;48.312;9.246;2022-12-18T17:23:45;94498.72;;;-6.89;100.00
71057;BME280;58380;48.312;9.246;2022-12-18T17:26:11;94491.28;;;-6.92;100.00
71057;BME280;58380;48.312;9.246;2022-12-18T17:28:38;94520.66;;;-6.76;100.00
71057;BME280;58380;48.312;9.246;2022-12-18T17:31:13;94486.56;;;-6.87;100.00
71057;BME280;58380;48.312;9.246;2022-12-18T17:33:41;94462.78;;;-6.89;100.00
71057;BME280;58380;48.312;9.246;2022-12-18T17:36:08;94500.03;;;-6.55;100.00
71057;BME280;58380;48.312;9.246;2022-12-18T17:38:34;94502.88;;;-6.58;100.00
71057;BME280;58380;48.312;9.246;2022-12-18T17:41:08;94500.44;;;-6.59;100.00
71057;BME280;58380;48.312;9.246;2022-12-18T17:43:35;94482.28;;;-6.77;100.00
71057;BME280;58380;48.312;9.246;2022-12-18T17:46:06;94492.19;;;-6.63;100.00
71057;BME280;58380;48.312;9.246;2022-12-18T17:48:32;94497.75;;;-6.58;100.00
71057;BME280;58380;48.312;9.246;2022-12-18T17:51:02;94496.94;;;-6.58;100.00
71057;BME280;58380;48.312;9.246;2022-12-18T17:53:30;94491.13;;;-6.60;100.00
71057;BME280;58380;48.312;9.246;2022-12-18T17:55:56;94482.44;;;-6.69;100.00
71057;BME280;58380;48.312;9.246;2022-12-18T17:58:25;94491.41;;;-6.54;100.00
71057;BME280;58380;48.312;9.246;2022-12-18T18:00:50;94464.22;;;-6.66;100.00
71057;BME280;58380;48.312;9.246;2022-12-18T18:03:16;94481.38;;;-6.57;100.00
71057;BME280;58380;48.312;9.246;2022-12-18T18:05:41;94465.28;;;-6.68;100.00
71057;BME280;58380;48.312;9.246;2022-12-18T18:08:07;94440.25;;;-6.86;100.00
71057;BME280;58380;48.312;9.246;2022-12-18T18:10:36;94484.53;;;-6.43;100.00
71057;BME280;58380;48.312;9.246;2022-12-18T18:13:04;94469.63;;;-6.59;100.00
71057;BME280;58380;48.312;9.246;2022-12-18T18:15:55;94500.19;;;-6.37;100.00
71057;BME280;58380;48.312;9.246;2022-12-18T18:18:22;94497.91;;;-6.40;100.00
71057;BME280;58380;48.312;9.246;2022-12-18T18:20:48;94497.09;;;-6.40;100.00
71057;BME280;58380;48.312;9.246;2022-12-18T18:23:13;94459.22;;;-6.58;100.00
71057;BME280;58380;48.312;9.246;2022-12-18T18:25:42;94481.66;;;-6.50;100.00
71057;BME280;58380;48.312;9.246;2022-12-18T18:28:07;94486.28;;;-6.44;100.00
71057;BME280;58380;48.312;9.246;2022-12-18T18:30:35;94433.53;;;-6.67;100.00
71057;BME280;58380;48.312;9.246;2022-12-18T18:33:01;94456.66;;;-6.58;100.00
71057;BME280;58380;48.312;9.246;2022-12-18T18:35:26;94464.50;;;-6.49;100.00
71057;BME280;58380;48.312;9.246;2022-12-18T18:37:51;94475.59;;;-6.39;100.00
71057;BME280;58380;48.312;9.246;2022-12-18T18:40:17;94442.19;;;-6.59;100.00
71057;BME280;58380;48.312;9.246;2022-12-18T18:42:42;94469.25;;;-6.45;100.00
71057;BME280;58380;48.312;9.246;2022-12-18T18:45:08;94467.06;;;-6.40;100.00
71057;BME280;58380;48.312;9.246;2022-12-18T18:47:34;94496.31;;;-6.31;100.00
71057;BME280;58380;48.312;9.246;2022-12-18T18:49:59;94486.84;;;-6.31;100.00
71057;BME280;58380;48.312;9.246;2022-12-18T18:52:25;94472.22;;;-6.40;100.00
71057;BME280;58380;48.312;9.246;2022-12-18T18:54:50;94479.81;;;-6.28;100.00
71057;BME280;58380;48.312;9.246;2022-12-18T18:57:16;94431.53;;;-6.64;100.00
71057;BME280;58380;48.312;9.246;2022-12-18T18:59:41;94445.31;;;-6.45;100.00
71057;BME280;58380;48.312;9.246;2022-12-18T19:02:14;94487.38;;;-6.27;100.00
71057;BME280;58380;48.312;9.246;2022-12-18T19:04:41;94491.19;;;-6.21;100.00
71057;BME280;58380;48.312;9.246;2022-12-18T19:07:07;94469.53;;;-6.28;100.00
71057;BME280;58380;48.312;9.246;2022-12-18T19:09:33;94484.00;;;-6.18;100.00
71057;BME280;58380;48.312;9.246;2022-12-18T19:12:01;94488.59;;;-6.12;100.00
71057;BME280;58380;48.312;9.246;2022-12-18T19:14:45;94494.81;;;-6.04;100.00
71057;BME280;58380;48.312;9.246;2022-12-18T19:17:11;94501.84;;;-6.07;100.00
71057;BME280;58380;48.312;9.246;2022-12-18T19:19:37;94489.28;;;-6.10;100.00
71057;BME280;58380;48.312;9.246;2022-12-18T19:22:03;94444.25;;;-6.33;100.00
71057;BME280;58380;48.312;9.246;2022-12-18T19:24:28;94491.84;;;-6.10;100.00
71057;BME280;58380;48.312;9.246;2022-12-18T19:26:53;94482.63;;;-6.22;100.00
71057;BME280;58380;48.312;9.246;2022-12-18T19:29:19;94481.16;;;-6.05;100.00
71057;BME280;58380;48.312;9.246;2022-12-18T19:31:44;94472.75;;;-6.07;100.00
71057;BME280;58380;48.312;9.246;2022-12-18T19:34:10;94460.31;;;-6.12;100.00
71057;BME280;58380;48.312;9.246;2022-12-18T19:36:37;94482.38;;;-5.99;100.00
71057;BME280;58380;48.312;9.246;2022-12-18T19:39:15;94494.13;;;-6.07;100.00
71057;BME280;58380;48.312;9.246;2022-12-18T19:41:43;94492.53;;;-6.08;100.00
71057;BME280;58380;48.312;9.246;2022-12-18T19:44:10;94502.53;;;-6.14;100.00
71057;BME280;58380;48.312;9.246;2022-12-18T19:46:37;94463.16;;;-6.34;100.00
71057;BME280;58380;48.312;9.246;2022-12-18T19:49:03;94486.03;;;-6.21;100.00
71057;BME280;58380;48.312;9.246;2022-12-18T19:51:31;94483.72;;;-6.15;100.00
71057;BME280;58380;48.312;9.246;2022-12-18T19:53:57;94492.13;;;-6.13;100.00
71057;BME280;58380;48.312;9.246;2022-12-18T19:56:27;94447.34;;;-6.30;100.00
71057;BME280;58380;48.312;9.246;2022-12-18T19:58:55;94439.34;;;-6.26;100.00
71057;BME280;58380;48.312;9.246;2022-12-18T20:01:22;94439.63;;;-6.30;100.00
71057;BME280;58380;48.312;9.246;2022-12-18T20:03:49;94443.97;;;-6.20;100.00
71057;BME280;58380;48.312;9.246;2022-12-18T20:06:30;94465.06;;;-6.07;100.00
71057;BME280;58380;48.312;9.246;2022-12-18T20:09:00;94465.06;;;-6.07;100.00
71057;BME280;58380;48.312;9.246;2022-12-18T20:11:29;94466.53;;;-6.14;100.00
71057;BME280;58380;48.312;9.246;2022-12-18T20:13:55;94492.53;;;-5.98;100.00
71057;BME280;58380;48.312;9.246;2022-12-18T20:16:22;94461.69;;;-6.08;100.00
71057;BME280;58380;48.312;9.246;2022-12-18T20:18:47;94390.69;;;-6.47;100.00
71057;BME280;58380;48.312;9.246;2022-12-18T20:21:13;94410.97;;;-6.25;100.00
71057;BME280;58380;48.312;9.246;2022-12-18T20:23:39;94449.88;;;-5.91;100.00
71057;BME280;58380;48.312;9.246;2022-12-18T20:26:04;94463.25;;;-5.77;100.00
71057;BME280;58380;48.312;9.246;2022-12-18T20:28:30;94447.53;;;-5.74;100.00
71057;BME280;58380;48.312;9.246;2022-12-18T20:31:04;94412.13;;;-5.90;100.00
71057;BME280;58380;48.312;9.246;2022-12-18T20:33:33;94441.84;;;-5.68;100.00
71057;BME280;58380;48.312;9.246;2022-12-18T20:36:05;94447.53;;;-5.65;100.00
71057;BME280;58380;48.312;9.246;2022-12-18T20:38:33;94441.28;;;-5.62;100.00
71057;BME280;58380;48.312;9.246;2022-12-18T20:40:59;94421.28;;;-5.68;100.00
71057;BME280;58380;48.312;9.246;2022-12-18T20:43:28;94376.19;;;-6.00;100.00
71057;BME280;58380;48.312;9.246;2022-12-18T20:46:05;94432.06;;;-5.55;100.00
71057;BME280;58380;48.312;9.246;2022-12-18T20:48:32;94431.53;;;-5.58;100.00
71057;BME280;58380;48.312;9.246;2022-12-18T20:51:09;94396.38;;;-5.77;100.00
71057;BME280;58380;48.312;9.246;2022-12-18T20:53:36;94434.50;;;-5.53;100.00
71057;BME280;58380;48.312;9.246;2022-12-18T20:56:14;94441.41;;;-5.54;100.00
71057;BME280;58380;48.312;9.246;2022-12-18T20:58:42;94430.59;;;-5.57;100.00
71057;BME280;58380;48.312;9.246;2022-12-18T21:01:13;94425.16;;;-5.54;100.00
71057;BME280;58380;48.312;9.246;2022-12-18T21:03:42;94407.97;;;-5.54;100.00
71057;BME280;58380;48.312;9.246;2022-12-18T21:06:08;94384.69;;;-5.62;100.00
71057;BME280;58380;48.312;9.246;2022-12-18T21:08:34;94394.94;;;-5.43;100.00
71057;BME280;58380;48.312;9.246;2022-12-18T21:14:06;94397.59;;;-5.72;100.00
71057;BME280;58380;48.312;9.246;2022-12-18T21:16:34;94395.31;;;-5.85;100.00
71057;BME280;58380;48.312;9.246;2022-12-18T21:19:00;94412.59;;;-5.67;100.00
71057;BME280;58380;48.312;9.246;2022-12-18T21:21:25;94399.50;;;-5.74;100.00
71057;BME280;58380;48.312;9.246;2022-12-18T21:23:50;94423.53;;;-5.55;100.00
71057;BME280;58380;48.312;9.246;2022-12-18T21:26:20;94423.94;;;-5.50;100.00
71057;BME280;58380;48.312;9.246;2022-12-18T21:28:53;94421.25;;;-5.58;100.00
71057;BME280;58380;48.312;9.246;2022-12-18T21:31:20;94438.00;;;-5.54;100.00
71057;BME280;58380;48.312;9.246;2022-12-18T21:33:48;94425.44;;;-5.57;100.00
71057;BME280;58380;48.312;9.246;2022-12-18T21:36:14;94409.34;;;-5.59;100.00
71057;BME280;58380;48.312;9.246;2022-12-18T21:38:40;94388.09;;;-5.61;100.00
71057;BME280;58380;48.312;9.246;2022-12-18T21:41:06;94409.59;;;-5.53;100.00
71057;BME280;58380;48.312;9.246;2022-12-18T21:43:35;94406.44;;;-5.47;100.00
71057;BME280;58380;48.312;9.246;2022-12-18T21:46:20;94388.75;;;-5.59;100.00
71057;BME280;58380;48.312;9.246;2022-12-18T21:48:45;94406.59;;;-5.48;100.00
71057;BME280;58380;48.312;9.246;2022-12-18T21:51:11;94404.03;;;-5.48;100.00
71057;BME280;58380;48.312;9.246;2022-12-18T21:53:36;94421.22;;;-5.39;100.00
71057;BME280;58380;48.312;9.246;2022-12-18T21:56:02;94401.47;;;-5.48;100.00
71057;BME280;58380;48.312;9.246;2022-12-18T21:58:28;94393.66;;;-5.56;100.00
71057;BME280;58380;48.312;9.246;2022-12-18T22:00:53;94401.16;;;-5.45;100.00